Meteo Giornale » Osservazioni meteo Emirati Arabi Uniti » Sharjah
ore: 10:30 - Osservazioni Meteo Sharjah
Lat. 25° 20' N Lon. 55° 31' E Alt. 35 metri s.l.m.
40 °C
Sereno
Temp. 24 Ore
30 °C
41 °C
Est/Sud-Est
11.1 Km/h
Dew point 22 °C
Umidità 35 %
Visibilità 10 Km
Il sole sorge alle ore 05:58
Il sole tramonta alle ore 18:37
| Data e Ora | Cielo e Fenomeni | T °C | DP °C | Um. % | Pres. hPa | Vis. km | Vento km/h | |
|---|---|---|---|---|---|---|---|---|
| Oggi h: 10:30 | Sereno | 40 | 22 | 35 | 1002 | 10 | E/SE 11.1 | |
| Oggi h: 10:00 | Sereno | 38 | 24 | 45 | 1002 | 9 | N 5.5 | |
| Oggi h: 09:30 | Sereno | 37 | 25 | 50 | 1002 | 9 | E 7.4 | |
| Oggi h: 09:00 | Sereno | 36 | 25 | 53 | 1002 | 7 | N 5.5 | |
| Oggi h: 08:30 | Sereno | 35 | 26 | 59 | 1001 | 7 | E 9.3 | |
| Oggi h: 08:05 | Sereno | 35 | 25 | 56 | 1001 | 6 | E 9.3 | |
| Oggi h: 08:00 | Foschia | 34 | 26 | 63 | 1001 | 5 | N 3.7 | |
| Oggi h: 07:35 | Foschia | 33 | 27 | 70 | 1001 | 4 | N 5.5 | |
| Oggi h: 07:30 | Foschia | 32 | 27 | 74 | 1001 | 3 | E 7.4 | |
| Oggi h: 07:00 | Foschia | 31 | 27 | 79 | 1000 | 3 | N 5.5 | |
| Oggi h: 06:30 | Foschia | 30 | 27 | 84 | 1000 | 3 | E/SE 7.4 | |
| Oggi h: 06:08 | Foschia | 30 | 27 | 84 | 1000 | 3 | E 9.3 | |
| Oggi h: 06:00 | Foschia | 30 | 27 | 84 | 1000 | 4 | E/SE 11.1 | |
| Oggi h: 05:30 | Foschia | 30 | 28 | 89 | 1000 | 4 | N 5.5 | |
| Oggi h: 05:00 | Foschia | 30 | 28 | 89 | 1000 | 4 | N 5.5 | |
| Oggi h: 04:30 | Foschia | 31 | 28 | 84 | 1000 | 4 | N 5.5 | |
| Oggi h: 04:00 | Foschia | 31 | 28 | 84 | 1000 | 4 | E/SE 7.4 | |
| Oggi h: 03:33 | Foschia | 31 | 28 | 84 | 1000 | 5 | E 7.4 | |
| Oggi h: 03:00 | Foschia | 31 | 28 | 84 | 1000 | 5 | E 7.4 | |
| Oggi h: 02:30 | Foschia | 32 | 28 | 79 | 1000 | 5 | N 5.5 | |
| Oggi h: 02:00 | Foschia | 32 | 28 | 79 | 1000 | 5 | N 5.5 | |
| Oggi h: 01:30 | Sereno | 33 | 29 | 79 | 1000 | 6 | N 1.8 | |
| Oggi h: 01:00 | Sereno | 33 | 29 | 79 | 1000 | 6 | N 3.7 | |
| Oggi h: 00:30 | Sereno | 33 | 28 | 75 | 1000 | 6 | N 5.5 | |
| Oggi h: 00:00 | Sereno | 33 | 28 | 75 | 1000 | 6 | N 5.5 | |
| Ieri h: 23:30 | Sereno | 34 | 28 | 71 | 1001 | 6 | N 5.5 | |
| Ieri h: 23:00 | Sereno | 34 | 28 | 71 | 1001 | 7 | N 3.7 | |
| Ieri h: 22:30 | Sereno | 34 | 28 | 71 | 1001 | 7 | N 3.7 | |
| Ieri h: 22:00 | Sereno | 35 | 29 | 71 | 1000 | 7 | N 3.7 | |
| Ieri h: 21:30 | Sereno | 35 | 28 | 67 | 1000 | 7 | N 5.5 | |
| Ieri h: 21:00 | Sereno | 35 | 28 | 67 | 1000 | 7 | N 5.5 | |
| Ieri h: 20:30 | Sereno | 35 | 26 | 59 | 1000 | 7 | NO 9.3 | |
| Ieri h: 20:00 | Sereno | 36 | 26 | 56 | 999 | 7 | O/NO 11.1 | |
| Ieri h: 19:30 | Sereno | 36 | 27 | 60 | 999 | 7 | N/NO 9.3 | |
| Ieri h: 19:00 | Sereno | 36 | 26 | 56 | 999 | 7 | O/NO 11.1 | |
| Ieri h: 18:30 | Sereno | 37 | 27 | 56 | 999 | 8 | O/NO 13 | |
| Ieri h: 18:00 | Sereno | 37 | 25 | 50 | 999 | 10 | O/NO 16.7 | |
| Ieri h: 17:30 | Sereno | 38 | 24 | 45 | 999 | 10 | O 20.3 | |
| Ieri h: 17:00 | Sereno | 39 | 25 | 45 | 1000 | 10 | O/NO 18.5 | |
| Ieri h: 16:30 | Sereno | 39 | 24 | 42 | 999 | 10 | O/NO 22.2 | |
| Ieri h: 16:00 | Sereno | 39 | 25 | 45 | 1000 | 10 | O/NO 22.2 | |
| Ieri h: 15:30 | Sereno | 39 | 25 | 45 | 1000 | 10 | O/NO 25.9 | |
| Ieri h: 15:00 | Sereno | 39 | 24 | 42 | 1000 | 10 | O/NO 24 | |
| Ieri h: 14:30 | Sereno | 39 | 24 | 42 | 1000 | 10 | O/NO 25.9 | |
| Ieri h: 14:00 | Sereno | 39 | 23 | 40 | 1001 | 10 | O/NO 27.8 | |
| Ieri h: 13:30 | Sereno | 40 | 18 | 27 | 1001 | 10 | O 25.9 | |
| Ieri h: 13:00 | Sereno | 41 | 20 | 30 | 1001 | 10 | O 24 | |
| Ieri h: 12:30 | Sereno | 41 | 17 | 24 | 1001 | 10 | O 18.5 | |
| Ieri h: 12:00 | Sereno | 41 | 17 | 24 | 1002 | 10 | O/NO 14.8 | |
| Ieri h: 11:30 | Sereno | 41 | 17 | 24 | 1002 | 10 | O 9.3 | |
| Ieri h: 11:00 | Sereno | 41 | 15 | 21 | 1002 | 10 | SO 11.1 | |



